• Join FlightAware (Why Join?)
  • Login
  • US Flag 
02:24AM EST


 

Airport Tracker/Info


-or-


 

Live Flight TrackerFlight Track Log ✈ N143DE ✈ 28-Jun-2013 ✈ KTLH - KRYY

Flight Track Log - Related Links

Times and Time Zones

All times are in EDT time to prevent confusion due to time zone crossing. See the N143DE flight status page for this flight to view local times or setup timezone preferences in your user account.

Time Position Orientation Groundspeed Altitude Reporting Facility
EDT Latitude Longitude Course Direction KTS MPH feet Rate Location/Type
03:03AM 30.5317 -84.3636 351° North 180 207 6,800  Level Jacksonville Center
03:04AM 30.5711 -84.3667 356° North 156 180 20,000 1,800 Climbing Jacksonville Center
03:05AM 30.6128 -84.3769 348° North 156 180 10,500 -3,900 Descending Jacksonville Center
03:06AM 30.6567 -84.3850 351° North 156 180 12,300 1,560 Climbing Jacksonville Center
03:07AM 30.7067 -84.3931 352° North 166 191 13,700 1,380 Climbing Jacksonville Center
03:08AM 30.7544 -84.3986 354° North 171 197 15,100 1,380 Climbing Jacksonville Center
03:09AM 30.8044 -84.4042 355° North 171 197 16,500 1,320 Climbing Jacksonville Center
03:10AM 30.8503 -84.4169 347° North 171 197 17,800 1,200 Climbing Jacksonville Center
03:11AM 30.8961 -84.4275 349° North 171 197 18,900 960 Climbing Jacksonville Center
03:12AM 30.9439 -84.4428 345° North 171 197 19,800 600 Climbing Jacksonville Center
03:13AM 30.9958 -84.4631 341° North 177 204 20,100 120 Climbing Jacksonville Center
03:14AM 31.0583 -84.4836 344° North 206 237 20,100 -60 Level Jacksonville Center
03:15AM 31.1228 -84.5064 343° North 227 261 20,000 -60 Descending Jacksonville Center
03:16AM 31.1933 -84.5319 343° North 232 267 20,000  Level Jacksonville Center
03:17AM 31.2578 -84.5550 343° North 238 274 20,000  Level Jacksonville Center
03:18AM 31.3244 -84.5781 344° North 244 281 20,000  Level Jacksonville Center
03:20AM 31.4822 -84.6356 343° North 244 281 20,000  Level Atlanta Center
03:21AM 31.5467 -84.6603 342° North 244 281 20,000  Level Atlanta Center
03:22AM 31.6156 -84.6828 344° North 244 281 20,000  Level Atlanta Center
03:23AM 31.6842 -84.7100 341° North 244 281 20,000  Level Atlanta Center
03:24AM 31.7447 -84.7325 342° North 239 275 20,000  Level Atlanta Center
03:25AM 31.8072 -84.7525 345° North 234 269 20,000  Level Atlanta Center
03:26AM 31.8697 -84.7775 341° North 234 269 20,000  Level Atlanta Center
03:27AM 31.9322 -84.8000 343° North 234 269 20,000  Level Atlanta Center
03:28AM 31.9967 -84.8200 345° North 229 264 20,000  Level Atlanta Center
03:29AM 32.0614 -84.8428 343° North 229 264 20,000  Level Atlanta Center
03:30AM 32.1217 -84.8678 341° North 229 264 20,000 -480 Level Atlanta Center
03:31AM 32.1903 -84.8906 344° North 235 270 19,100 -1,020 Descending Atlanta Center
03:32AM 32.2678 -84.8739 10° North 250 288 18,000 -900 Descending Atlanta Center
03:33AM 32.3492 -84.8650 North 273 314 17,300 -780 Descending Atlanta Center
03:34AM 32.4222 -84.8483 11° North 273 314 16,500 -840 Descending Atlanta Center
03:35AM 32.5017 -84.8392 North 273 314 15,700 -720 Descending Atlanta Center
03:36AM 32.5747 -84.8325 North 273 314 15,100 -300 Descending Atlanta Center
03:37AM 32.6481 -84.8158 11° North 273 314 15,100 -420 Level Atlanta Center
03:38AM 32.7211 -84.8067 North 273 314 14,300 -900 Descending Atlanta Center
03:39AM 32.8089 -84.7975 North 278 320 13,400 -900 Descending Atlanta Center
03:40AM 32.8839 -84.7833 North 278 320 12,600 -780 Descending Atlanta Center
03:41AM 32.9550 -84.7742 North 266 306 11,900 -660 Descending Atlanta Center
03:42AM 33.0239 -84.7622 North 250 288 11,300 -420 Descending Atlanta Center
03:43AM 33.0931 -84.7506 North 250 288 11,100 -120 Descending Atlanta Center
03:44AM 33.1494 -84.7386 10° North 237 273 11,100  Level Atlanta Center
03:45AM 33.2142 -84.7292 North 237 273 11,100  Level Atlanta Center
03:46AM 33.2789 -84.7197 North 237 273 11,100  Level Atlanta Center
03:47AM 33.3436 -84.7078 North 237 273 11,100  Level Atlanta Center
03:48AM 33.4064 -84.6983 North 237 273 11,100 -60 Level Atlanta Center
03:50AM 33.5167 -84.6333 26° Northeast 236 272 11,000 -60 Descending Atlanta TRACON
03:51AM 33.5833 -84.6167 12° North 236 272 11,000 -120 Level Atlanta TRACON
03:52AM 33.6333 -84.5833 29° Northeast 236 272 10,800 -780 Descending Atlanta TRACON
03:53AM 33.7000 -84.5500 23° Northeast 242 278 9,500 -1,380 Descending Atlanta TRACON
03:54AM 33.7667 -84.5167 23° Northeast 239 275 8,100 -1,500 Descending Atlanta TRACON
03:55AM 33.8333 -84.5000 12° North 242 278 6,500 -1,500 Descending Atlanta TRACON
03:56AM 33.8833 -84.4500 40° Northeast 241 277 5,100 -1,320 Descending Atlanta TRACON
03:57AM 33.9333 -84.4000 40° Northeast 234 269 3,900 -1,080 Descending Atlanta TRACON
03:58AM 33.9833 -84.3500 40° Northeast 212 244 3,000 -540 Descending Atlanta TRACON
03:59AM 34.0000 -84.4000 292° West 166 191 2,900 -60 Descending Atlanta TRACON
04:00AM 34.0167 -84.4333 301° West 142 163 2,900 -120 Level Atlanta TRACON
04:01AM 34.0167 -84.4833 270° West 111 128 2,700 -420 Descending Atlanta TRACON
04:02AM 34.0167 -84.5167 270° West 112 129 2,100 -540 Descending Atlanta TRACON
04:03AM 34.0167 -84.5500 270° West 102 117 1,700 240 Descending Atlanta TRACON
04:05AM 34.0000 -84.5833 299° West  Level FlightAware Approximate
04:05AM 34.0167 -84.6333 299° West 117 135 2,900  Level Atlanta TRACON
04:06AM 34.0000 -84.6667 239° Southwest 153 176 3,200  Climbing Atlanta TRACON
04:07AM 33.9667 -84.7000 220° Southwest 147 169 3,000 -120 Descending Atlanta TRACON
04:08AM 33.9500 -84.7500 248° West 136 157 3,000  Level Atlanta TRACON
04:09AM 33.9500 -84.7833 270° West 120 138 3,000  Level Atlanta TRACON
04:10AM 33.9667 -84.8000 320° Northwest 126 145 3,000  Level Atlanta TRACON
04:11AM 33.9833 -84.8000 360° North 142 163 3,000  Level Atlanta TRACON
04:12AM 34.0000 -84.7500 68° East 131 151 3,000  Level Atlanta TRACON